sensor_id;sensor_type;location;lat;lon;timestamp;P1;durP1;ratioP1;P2;durP2;ratioP2
31238;SDS011;17871;31.584;74.450;2024-03-06T00:02:01;174.90;;;71.25;;
31238;SDS011;17871;31.584;74.450;2024-03-06T00:04:31;157.82;;;71.40;;
31238;SDS011;17871;31.584;74.450;2024-03-06T00:07:00;167.73;;;68.93;;
31238;SDS011;17871;31.584;74.450;2024-03-06T00:09:30;148.32;;;66.90;;
31238;SDS011;17871;31.584;74.450;2024-03-06T00:11:59;140.85;;;65.13;;
31238;SDS011;17871;31.584;74.450;2024-03-06T00:14:28;150.20;;;64.70;;
31238;SDS011;17871;31.584;74.450;2024-03-06T00:16:57;144.38;;;63.65;;
31238;SDS011;17871;31.584;74.450;2024-03-06T00:19:26;132.02;;;56.92;;
31238;SDS011;17871;31.584;74.450;2024-03-06T00:21:56;113.10;;;51.42;;
31238;SDS011;17871;31.584;74.450;2024-03-06T00:24:25;113.32;;;52.58;;
31238;SDS011;17871;31.584;74.450;2024-03-06T00:26:54;122.70;;;54.33;;
31238;SDS011;17871;31.584;74.450;2024-03-06T00:29:23;123.25;;;51.38;;
31238;SDS011;17871;31.584;74.450;2024-03-06T00:31:54;135.48;;;48.08;;
31238;SDS011;17871;31.584;74.450;2024-03-06T00:34:23;125.75;;;47.97;;
31238;SDS011;17871;31.584;74.450;2024-03-06T00:36:52;109.60;;;48.35;;
31238;SDS011;17871;31.584;74.450;2024-03-06T00:39:22;122.18;;;50.78;;
31238;SDS011;17871;31.584;74.450;2024-03-06T00:41:53;113.50;;;49.58;;
31238;SDS011;17871;31.584;74.450;2024-03-06T00:44:23;104.93;;;46.75;;
31238;SDS011;17871;31.584;74.450;2024-03-06T00:46:52;109.35;;;48.30;;
31238;SDS011;17871;31.584;74.450;2024-03-06T00:49:21;97.93;;;42.90;;
31238;SDS011;17871;31.584;74.450;2024-03-06T00:51:50;87.88;;;40.42;;
31238;SDS011;17871;31.584;74.450;2024-03-06T00:54:19;97.22;;;40.92;;
31238;SDS011;17871;31.584;74.450;2024-03-06T00:56:48;82.20;;;39.55;;
31238;SDS011;17871;31.584;74.450;2024-03-06T00:59:17;95.78;;;40.35;;
31238;SDS011;17871;31.584;74.450;2024-03-06T01:01:46;79.95;;;39.58;;
31238;SDS011;17871;31.584;74.450;2024-03-06T01:04:16;83.82;;;40.20;;
31238;SDS011;17871;31.584;74.450;2024-03-06T01:06:45;85.80;;;38.20;;
31238;SDS011;17871;31.584;74.450;2024-03-06T01:09:14;76.05;;;38.10;;
31238;SDS011;17871;31.584;74.450;2024-03-06T01:11:43;71.70;;;38.55;;
31238;SDS011;17871;31.584;74.450;2024-03-06T01:14:15;90.60;;;38.50;;
31238;SDS011;17871;31.584;74.450;2024-03-06T01:16:45;90.25;;;41.33;;
31238;SDS011;17871;31.584;74.450;2024-03-06T01:19:14;84.15;;;40.78;;
31238;SDS011;17871;31.584;74.450;2024-03-06T01:21:43;82.68;;;39.03;;
31238;SDS011;17871;31.584;74.450;2024-03-06T01:24:12;89.93;;;39.67;;
31238;SDS011;17871;31.584;74.450;2024-03-06T01:26:41;70.10;;;37.10;;
31238;SDS011;17871;31.584;74.450;2024-03-06T01:29:10;88.53;;;37.92;;
31238;SDS011;17871;31.584;74.450;2024-03-06T01:31:39;89.10;;;37.15;;
31238;SDS011;17871;31.584;74.450;2024-03-06T01:34:09;74.13;;;38.97;;
31238;SDS011;17871;31.584;74.450;2024-03-06T01:36:38;70.28;;;36.33;;
31238;SDS011;17871;31.584;74.450;2024-03-06T01:39:07;80.20;;;39.10;;
31238;SDS011;17871;31.584;74.450;2024-03-06T01:41:36;84.07;;;37.72;;
31238;SDS011;17871;31.584;74.450;2024-03-06T01:44:05;74.97;;;37.95;;
31238;SDS011;17871;31.584;74.450;2024-03-06T01:46:34;79.70;;;38.53;;
31238;SDS011;17871;31.584;74.450;2024-03-06T01:49:03;84.47;;;39.30;;
31238;SDS011;17871;31.584;74.450;2024-03-06T01:51:32;72.50;;;40.38;;
31238;SDS011;17871;31.584;74.450;2024-03-06T01:54:02;91.10;;;41.10;;
31238;SDS011;17871;31.584;74.450;2024-03-06T01:56:36;77.68;;;40.25;;
31238;SDS011;17871;31.584;74.450;2024-03-06T01:59:06;85.93;;;39.25;;
31238;SDS011;17871;31.584;74.450;2024-03-06T02:01:42;75.10;;;39.10;;
31238;SDS011;17871;31.584;74.450;2024-03-06T02:04:12;93.18;;;39.33;;
31238;SDS011;17871;31.584;74.450;2024-03-06T02:06:41;81.60;;;40.80;;
31238;SDS011;17871;31.584;74.450;2024-03-06T02:09:10;90.55;;;40.00;;
31238;SDS011;17871;31.584;74.450;2024-03-06T02:11:42;95.85;;;42.97;;
31238;SDS011;17871;31.584;74.450;2024-03-06T02:14:11;90.22;;;41.67;;
31238;SDS011;17871;31.584;74.450;2024-03-06T02:16:41;105.57;;;43.70;;
31238;SDS011;17871;31.584;74.450;2024-03-06T02:19:10;91.57;;;42.90;;
31238;SDS011;17871;31.584;74.450;2024-03-06T02:21:39;99.38;;;45.25;;
31238;SDS011;17871;31.584;74.450;2024-03-06T02:24:09;110.95;;;47.05;;
31238;SDS011;17871;31.584;74.450;2024-03-06T02:26:40;104.43;;;45.00;;
31238;SDS011;17871;31.584;74.450;2024-03-06T02:29:09;94.10;;;45.05;;
31238;SDS011;17871;31.584;74.450;2024-03-06T02:31:39;105.93;;;45.25;;
31238;SDS011;17871;31.584;74.450;2024-03-06T02:34:08;107.35;;;46.05;;
31238;SDS011;17871;31.584;74.450;2024-03-06T02:36:38;106.00;;;44.88;;
31238;SDS011;17871;31.584;74.450;2024-03-06T02:39:06;87.78;;;45.03;;
31238;SDS011;17871;31.584;74.450;2024-03-06T02:41:37;118.13;;;46.95;;
31238;SDS011;17871;31.584;74.450;2024-03-06T02:44:06;93.75;;;45.38;;
31238;SDS011;17871;31.584;74.450;2024-03-06T02:46:39;95.28;;;41.50;;
31238;SDS011;17871;31.584;74.450;2024-03-06T02:49:08;82.00;;;43.05;;
31238;SDS011;17871;31.584;74.450;2024-03-06T02:51:37;102.35;;;47.17;;
31238;SDS011;17871;31.584;74.450;2024-03-06T02:54:06;93.53;;;42.67;;
31238;SDS011;17871;31.584;74.450;2024-03-06T02:56:35;111.57;;;52.92;;
31238;SDS011;17871;31.584;74.450;2024-03-06T02:59:04;96.78;;;47.55;;
31238;SDS011;17871;31.584;74.450;2024-03-06T03:01:33;130.43;;;52.92;;
31238;SDS011;17871;31.584;74.450;2024-03-06T03:04:02;91.55;;;47.13;;
31238;SDS011;17871;31.584;74.450;2024-03-06T03:06:32;84.28;;;47.80;;
31238;SDS011;17871;31.584;74.450;2024-03-06T03:09:01;97.60;;;46.60;;
31238;SDS011;17871;31.584;74.450;2024-03-06T03:11:32;88.57;;;43.95;;
31238;SDS011;17871;31.584;74.450;2024-03-06T03:14:00;82.45;;;40.85;;
31238;SDS011;17871;31.584;74.450;2024-03-06T03:16:30;113.50;;;44.83;;
31238;SDS011;17871;31.584;74.450;2024-03-06T03:19:01;90.10;;;44.60;;
31238;SDS011;17871;31.584;74.450;2024-03-06T03:21:30;90.45;;;43.53;;
31238;SDS011;17871;31.584;74.450;2024-03-06T03:24:00;94.50;;;45.30;;
31238;SDS011;17871;31.584;74.450;2024-03-06T03:26:29;109.30;;;51.38;;
31238;SDS011;17871;31.584;74.450;2024-03-06T03:28:59;120.32;;;53.03;;
31238;SDS011;17871;31.584;74.450;2024-03-06T03:31:28;115.68;;;54.40;;
31238;SDS011;17871;31.584;74.450;2024-03-06T03:33:58;112.78;;;48.92;;
31238;SDS011;17871;31.584;74.450;2024-03-06T03:36:27;111.93;;;47.80;;
31238;SDS011;17871;31.584;74.450;2024-03-06T03:38:56;108.00;;;47.50;;
31238;SDS011;17871;31.584;74.450;2024-03-06T03:41:25;136.80;;;52.90;;
31238;SDS011;17871;31.584;74.450;2024-03-06T03:43:54;113.38;;;50.33;;
31238;SDS011;17871;31.584;74.450;2024-03-06T03:46:23;145.07;;;65.22;;
31238;SDS011;17871;31.584;74.450;2024-03-06T03:48:52;122.50;;;52.70;;
31238;SDS011;17871;31.584;74.450;2024-03-06T03:51:21;103.47;;;46.38;;
31238;SDS011;17871;31.584;74.450;2024-03-06T03:53:52;109.80;;;46.05;;
31238;SDS011;17871;31.584;74.450;2024-03-06T03:56:21;97.55;;;47.38;;
31238;SDS011;17871;31.584;74.450;2024-03-06T03:58:50;109.03;;;43.13;;
31238;SDS011;17871;31.584;74.450;2024-03-06T04:01:19;99.70;;;43.88;;
31238;SDS011;17871;31.584;74.450;2024-03-06T04:03:48;120.82;;;43.47;;
31238;SDS011;17871;31.584;74.450;2024-03-06T04:06:19;107.97;;;41.40;;
31238;SDS011;17871;31.584;74.450;2024-03-06T04:08:48;98.03;;;41.92;;
31238;SDS011;17871;31.584;74.450;2024-03-06T04:11:17;79.45;;;37.22;;
31238;SDS011;17871;31.584;74.450;2024-03-06T04:13:47;70.43;;;31.08;;
31238;SDS011;17871;31.584;74.450;2024-03-06T04:16:17;105.88;;;37.10;;
31238;SDS011;17871;31.584;74.450;2024-03-06T04:18:46;100.22;;;37.65;;
31238;SDS011;17871;31.584;74.450;2024-03-06T04:21:15;87.82;;;33.08;;
31238;SDS011;17871;31.584;74.450;2024-03-06T04:23:52;66.13;;;32.42;;
31238;SDS011;17871;31.584;74.450;2024-03-06T04:26:22;85.28;;;30.70;;
31238;SDS011;17871;31.584;74.450;2024-03-06T04:28:51;71.82;;;31.60;;
31238;SDS011;17871;31.584;74.450;2024-03-06T04:31:20;79.53;;;36.33;;
31238;SDS011;17871;31.584;74.450;2024-03-06T04:33:52;107.50;;;36.27;;
31238;SDS011;17871;31.584;74.450;2024-03-06T04:36:21;99.65;;;41.25;;
31238;SDS011;17871;31.584;74.450;2024-03-06T04:38:57;113.63;;;43.85;;
31238;SDS011;17871;31.584;74.450;2024-03-06T04:41:27;89.18;;;38.22;;
31238;SDS011;17871;31.584;74.450;2024-03-06T04:43:56;88.78;;;38.42;;
31238;SDS011;17871;31.584;74.450;2024-03-06T04:46:27;74.90;;;36.30;;
31238;SDS011;17871;31.584;74.450;2024-03-06T04:48:56;86.57;;;35.67;;
31238;SDS011;17871;31.584;74.450;2024-03-06T04:51:25;64.65;;;31.92;;
31238;SDS011;17871;31.584;74.450;2024-03-06T04:53:55;80.57;;;33.20;;
31238;SDS011;17871;31.584;74.450;2024-03-06T04:56:24;83.47;;;31.50;;
31238;SDS011;17871;31.584;74.450;2024-03-06T04:58:53;87.20;;;32.15;;
31238;SDS011;17871;31.584;74.450;2024-03-06T05:01:22;86.18;;;33.45;;
31238;SDS011;17871;31.584;74.450;2024-03-06T05:03:52;74.65;;;30.45;;
31238;SDS011;17871;31.584;74.450;2024-03-06T05:06:38;60.08;;;28.17;;
31238;SDS011;17871;31.584;74.450;2024-03-06T05:09:23;70.15;;;28.25;;
31238;SDS011;17871;31.584;74.450;2024-03-06T05:12:09;65.80;;;28.35;;
31238;SDS011;17871;31.584;74.450;2024-03-06T05:14:55;48.85;;;25.08;;
31238;SDS011;17871;31.584;74.450;2024-03-06T05:17:41;51.20;;;25.25;;
31238;SDS011;17871;31.584;74.450;2024-03-06T05:20:27;56.15;;;27.30;;
31238;SDS011;17871;31.584;74.450;2024-03-06T05:23:15;66.10;;;28.27;;
31238;SDS011;17871;31.584;74.450;2024-03-06T05:26:02;69.70;;;28.02;;
31238;SDS011;17871;31.584;74.450;2024-03-06T05:28:48;53.97;;;24.73;;
31238;SDS011;17871;31.584;74.450;2024-03-06T05:31:33;77.80;;;25.75;;
31238;SDS011;17871;31.584;74.450;2024-03-06T05:34:19;53.75;;;24.17;;
31238;SDS011;17871;31.584;74.450;2024-03-06T05:37:05;53.05;;;24.77;;
31238;SDS011;17871;31.584;74.450;2024-03-06T05:39:50;55.88;;;20.63;;
31238;SDS011;17871;31.584;74.450;2024-03-06T05:42:37;54.28;;;21.08;;
31238;SDS011;17871;31.584;74.450;2024-03-06T05:45:22;49.97;;;19.65;;
31238;SDS011;17871;31.584;74.450;2024-03-06T05:48:08;38.03;;;17.63;;
31238;SDS011;17871;31.584;74.450;2024-03-06T05:50:54;39.50;;;18.23;;
31238;SDS011;17871;31.584;74.450;2024-03-06T05:53:40;32.08;;;17.05;;
31238;SDS011;17871;31.584;74.450;2024-03-06T05:56:25;47.90;;;16.83;;
31238;SDS011;17871;31.584;74.450;2024-03-06T05:59:10;35.42;;;17.48;;
31238;SDS011;17871;31.584;74.450;2024-03-06T06:01:39;43.30;;;19.20;;
31238;SDS011;17871;31.584;74.450;2024-03-06T06:04:09;50.50;;;20.38;;
31238;SDS011;17871;31.584;74.450;2024-03-06T06:06:38;39.78;;;21.35;;
31238;SDS011;17871;31.584;74.450;2024-03-06T06:09:08;37.13;;;20.30;;
31238;SDS011;17871;31.584;74.450;2024-03-06T06:11:44;37.80;;;19.95;;
31238;SDS011;17871;31.584;74.450;2024-03-06T06:14:13;41.92;;;17.83;;
31238;SDS011;17871;31.584;74.450;2024-03-06T06:16:45;40.23;;;15.83;;
31238;SDS011;17871;31.584;74.450;2024-03-06T06:19:14;32.65;;;14.32;;
31238;SDS011;17871;31.584;74.450;2024-03-06T06:21:43;26.42;;;14.02;;
31238;SDS011;17871;31.584;74.450;2024-03-06T06:24:13;26.90;;;14.32;;
31238;SDS011;17871;31.584;74.450;2024-03-06T06:26:42;26.77;;;13.98;;
31238;SDS011;17871;31.584;74.450;2024-03-06T06:29:11;45.13;;;16.05;;
31238;SDS011;17871;31.584;74.450;2024-03-06T06:31:40;52.40;;;17.17;;
31238;SDS011;17871;31.584;74.450;2024-03-06T06:34:09;57.58;;;19.45;;
31238;SDS011;17871;31.584;74.450;2024-03-06T06:36:44;47.38;;;20.23;;
31238;SDS011;17871;31.584;74.450;2024-03-06T06:39:13;51.10;;;21.08;;
31238;SDS011;17871;31.584;74.450;2024-03-06T06:41:45;41.20;;;20.73;;
31238;SDS011;17871;31.584;74.450;2024-03-06T06:44:14;37.40;;;21.00;;
31238;SDS011;17871;31.584;74.450;2024-03-06T06:46:43;39.00;;;18.25;;
31238;SDS011;17871;31.584;74.450;2024-03-06T06:49:12;41.80;;;20.05;;
31238;SDS011;17871;31.584;74.450;2024-03-06T06:51:42;48.10;;;20.58;;
31238;SDS011;17871;31.584;74.450;2024-03-06T06:54:10;55.70;;;21.95;;
31238;SDS011;17871;31.584;74.450;2024-03-06T06:56:40;44.72;;;19.52;;
31238;SDS011;17871;31.584;74.450;2024-03-06T06:59:10;50.00;;;22.40;;
31238;SDS011;17871;31.584;74.450;2024-03-06T07:01:39;48.08;;;20.65;;
31238;SDS011;17871;31.584;74.450;2024-03-06T07:04:10;44.25;;;19.90;;
31238;SDS011;17871;31.584;74.450;2024-03-06T07:06:39;93.05;;;20.27;;
31238;SDS011;17871;31.584;74.450;2024-03-06T07:09:09;45.45;;;21.38;;
31238;SDS011;17871;31.584;74.450;2024-03-06T07:11:38;80.05;;;24.15;;
31238;SDS011;17871;31.584;74.450;2024-03-06T07:14:07;49.75;;;20.25;;
31238;SDS011;17871;31.584;74.450;2024-03-06T07:16:41;54.13;;;21.15;;
31238;SDS011;17871;31.584;74.450;2024-03-06T07:19:11;48.35;;;20.88;;
31238;SDS011;17871;31.584;74.450;2024-03-06T07:21:41;53.92;;;23.35;;
31238;SDS011;17871;31.584;74.450;2024-03-06T07:24:10;52.20;;;22.35;;
31238;SDS011;17871;31.584;74.450;2024-03-06T07:26:39;50.45;;;22.95;;
31238;SDS011;17871;31.584;74.450;2024-03-06T07:29:08;55.78;;;23.65;;
31238;SDS011;17871;31.584;74.450;2024-03-06T07:31:43;85.10;;;27.27;;
31238;SDS011;17871;31.584;74.450;2024-03-06T07:34:12;53.35;;;25.92;;
31238;SDS011;17871;31.584;74.450;2024-03-06T07:36:43;45.80;;;21.83;;
31238;SDS011;17871;31.584;74.450;2024-03-06T07:39:18;44.05;;;18.83;;
31238;SDS011;17871;31.584;74.450;2024-03-06T07:41:48;88.63;;;21.55;;
31238;SDS011;17871;31.584;74.450;2024-03-06T07:44:17;68.28;;;17.95;;
31238;SDS011;17871;31.584;74.450;2024-03-06T07:46:46;46.15;;;15.10;;
31238;SDS011;17871;31.584;74.450;2024-03-06T07:49:15;88.00;;;19.15;;
31238;SDS011;17871;31.584;74.450;2024-03-06T07:51:44;76.93;;;15.52;;
31238;SDS011;17871;31.584;74.450;2024-03-06T07:54:13;32.22;;;12.70;;
31238;SDS011;17871;31.584;74.450;2024-03-06T07:56:43;31.90;;;12.85;;
31238;SDS011;17871;31.584;74.450;2024-03-06T07:59:12;24.60;;;11.13;;
31238;SDS011;17871;31.584;74.450;2024-03-06T08:01:42;42.45;;;13.45;;
31238;SDS011;17871;31.584;74.450;2024-03-06T08:04:12;31.08;;;13.93;;
31238;SDS011;17871;31.584;74.450;2024-03-06T08:06:42;49.08;;;15.23;;
31238;SDS011;17871;31.584;74.450;2024-03-06T08:09:12;30.45;;;14.35;;
31238;SDS011;17871;31.584;74.450;2024-03-06T08:11:42;97.10;;;19.02;;
31238;SDS011;17871;31.584;74.450;2024-03-06T08:14:11;41.30;;;15.55;;
31238;SDS011;17871;31.584;74.450;2024-03-06T08:16:43;41.00;;;14.90;;
31238;SDS011;17871;31.584;74.450;2024-03-06T08:19:15;52.50;;;17.83;;
31238;SDS011;17871;31.584;74.450;2024-03-06T08:21:44;286.25;;;31.48;;
31238;SDS011;17871;31.584;74.450;2024-03-06T08:24:14;47.35;;;16.25;;
31238;SDS011;17871;31.584;74.450;2024-03-06T08:26:45;36.13;;;14.77;;
31238;SDS011;17871;31.584;74.450;2024-03-06T08:29:17;32.25;;;14.55;;
31238;SDS011;17871;31.584;74.450;2024-03-06T08:31:46;39.72;;;15.30;;
31238;SDS011;17871;31.584;74.450;2024-03-06T08:34:15;25.55;;;14.40;;
31238;SDS011;17871;31.584;74.450;2024-03-06T08:36:45;36.60;;;14.43;;
31238;SDS011;17871;31.584;74.450;2024-03-06T08:39:15;31.30;;;14.02;;
31238;SDS011;17871;31.584;74.450;2024-03-06T08:41:45;24.83;;;13.65;;
31238;SDS011;17871;31.584;74.450;2024-03-06T08:44:14;29.33;;;14.20;;
31238;SDS011;17871;31.584;74.450;2024-03-06T08:46:44;38.95;;;15.52;;
31238;SDS011;17871;31.584;74.450;2024-03-06T08:49:13;35.92;;;14.32;;
31238;SDS011;17871;31.584;74.450;2024-03-06T08:51:42;33.20;;;15.57;;
31238;SDS011;17871;31.584;74.450;2024-03-06T08:54:12;27.60;;;15.38;;
31238;SDS011;17871;31.584;74.450;2024-03-06T08:56:43;46.67;;;15.82;;
31238;SDS011;17871;31.584;74.450;2024-03-06T08:59:12;39.53;;;15.60;;
31238;SDS011;17871;31.584;74.450;2024-03-06T09:01:42;243.52;;;32.53;;
31238;SDS011;17871;31.584;74.450;2024-03-06T09:04:11;45.47;;;18.20;;
31238;SDS011;17871;31.584;74.450;2024-03-06T09:06:40;52.75;;;18.10;;
31238;SDS011;17871;31.584;74.450;2024-03-06T09:09:09;65.40;;;19.02;;
31238;SDS011;17871;31.584;74.450;2024-03-06T09:11:38;49.20;;;18.20;;
31238;SDS011;17871;31.584;74.450;2024-03-06T09:14:07;38.72;;;17.08;;
31238;SDS011;17871;31.584;74.450;2024-03-06T09:16:37;34.42;;;16.33;;
31238;SDS011;17871;31.584;74.450;2024-03-06T09:19:06;37.40;;;17.58;;
31238;SDS011;17871;31.584;74.450;2024-03-06T09:21:36;51.00;;;19.33;;
31238;SDS011;17871;31.584;74.450;2024-03-06T09:24:05;42.00;;;19.83;;
31238;SDS011;17871;31.584;74.450;2024-03-06T09:26:34;51.05;;;18.38;;
31238;SDS011;17871;31.584;74.450;2024-03-06T09:29:04;42.47;;;20.00;;
31238;SDS011;17871;31.584;74.450;2024-03-06T09:31:33;41.63;;;18.80;;
31238;SDS011;17871;31.584;74.450;2024-03-06T09:34:02;43.83;;;18.45;;
31238;SDS011;17871;31.584;74.450;2024-03-06T09:36:32;52.13;;;17.95;;
31238;SDS011;17871;31.584;74.450;2024-03-06T09:39:01;36.97;;;16.55;;
31238;SDS011;17871;31.584;74.450;2024-03-06T09:41:33;37.58;;;14.65;;
31238;SDS011;17871;31.584;74.450;2024-03-06T09:44:02;38.33;;;16.25;;
31238;SDS011;17871;31.584;74.450;2024-03-06T09:46:32;59.85;;;15.13;;
31238;SDS011;17871;31.584;74.450;2024-03-06T09:49:03;96.65;;;17.83;;
31238;SDS011;17871;31.584;74.450;2024-03-06T09:51:34;62.50;;;15.63;;
31238;SDS011;17871;31.584;74.450;2024-03-06T09:54:03;49.67;;;15.38;;
31238;SDS011;17871;31.584;74.450;2024-03-06T09:56:36;40.38;;;15.52;;
31238;SDS011;17871;31.584;74.450;2024-03-06T09:59:05;32.83;;;14.43;;
31238;SDS011;17871;31.584;74.450;2024-03-06T10:01:35;62.33;;;15.50;;
31238;SDS011;17871;31.584;74.450;2024-03-06T10:04:21;29.58;;;13.30;;
31238;SDS011;17871;31.584;74.450;2024-03-06T10:06:54;33.63;;;13.82;;
31238;SDS011;17871;31.584;74.450;2024-03-06T10:09:24;39.67;;;15.48;;
31238;SDS011;17871;31.584;74.450;2024-03-06T10:11:54;38.85;;;14.63;;
31238;SDS011;17871;31.584;74.450;2024-03-06T10:14:30;33.63;;;13.80;;
31238;SDS011;17871;31.584;74.450;2024-03-06T10:16:59;34.28;;;12.52;;
31238;SDS011;17871;31.584;74.450;2024-03-06T10:19:29;40.38;;;14.63;;
31238;SDS011;17871;31.584;74.450;2024-03-06T10:21:59;32.83;;;13.57;;
31238;SDS011;17871;31.584;74.450;2024-03-06T10:24:28;43.05;;;13.60;;
31238;SDS011;17871;31.584;74.450;2024-03-06T10:26:58;53.78;;;14.45;;
31238;SDS011;17871;31.584;74.450;2024-03-06T10:29:29;27.95;;;14.23;;
31238;SDS011;17871;31.584;74.450;2024-03-06T10:31:58;34.08;;;15.43;;
31238;SDS011;17871;31.584;74.450;2024-03-06T10:34:28;47.70;;;14.55;;
31238;SDS011;17871;31.584;74.450;2024-03-06T10:39:39;47.17;;;15.32;;
31238;SDS011;17871;31.584;74.450;2024-03-06T10:42:12;35.75;;;15.10;;
31238;SDS011;17871;31.584;74.450;2024-03-06T10:44:48;30.85;;;14.20;;
31238;SDS011;17871;31.584;74.450;2024-03-06T10:47:19;43.08;;;13.98;;
31238;SDS011;17871;31.584;74.450;2024-03-06T10:49:49;38.33;;;13.60;;
31238;SDS011;17871;31.584;74.450;2024-03-06T10:52:18;24.55;;;12.65;;
31238;SDS011;17871;31.584;74.450;2024-03-06T10:54:48;36.03;;;14.10;;
31238;SDS011;17871;31.584;74.450;2024-03-06T10:57:18;35.50;;;14.10;;
31238;SDS011;17871;31.584;74.450;2024-03-06T10:59:48;43.33;;;16.63;;
31238;SDS011;17871;31.584;74.450;2024-03-06T11:02:19;34.63;;;15.18;;
31238;SDS011;17871;31.584;74.450;2024-03-06T11:04:48;31.75;;;14.65;;
31238;SDS011;17871;31.584;74.450;2024-03-06T11:07:17;37.50;;;15.40;;
31238;SDS011;17871;31.584;74.450;2024-03-06T11:09:46;37.80;;;16.40;;
31238;SDS011;17871;31.584;74.450;2024-03-06T11:12:36;34.85;;;15.10;;
31238;SDS011;17871;31.584;74.450;2024-03-06T11:17:40;32.35;;;15.25;;
31238;SDS011;17871;31.584;74.450;2024-03-06T11:20:13;47.08;;;15.18;;
31238;SDS011;17871;31.584;74.450;2024-03-06T11:28:22;29.70;;;16.70;;
31238;SDS011;17871;31.584;74.450;2024-03-06T11:30:56;48.83;;;16.70;;
31238;SDS011;17871;31.584;74.450;2024-03-06T11:33:35;39.42;;;14.60;;
31238;SDS011;17871;31.584;74.450;2024-03-06T11:36:27;33.67;;;15.63;;
31238;SDS011;17871;31.584;74.450;2024-03-06T11:39:06;34.58;;;17.20;;
31238;SDS011;17871;31.584;74.450;2024-03-06T11:44:06;32.83;;;16.23;;
31238;SDS011;17871;31.584;74.450;2024-03-06T11:49:07;24.77;;;14.05;;
31238;SDS011;17871;31.584;74.450;2024-03-06T11:51:44;32.38;;;15.60;;
31238;SDS011;17871;31.584;74.450;2024-03-06T11:54:13;39.60;;;15.75;;
31238;SDS011;17871;31.584;74.450;2024-03-06T11:56:45;27.23;;;14.27;;
31238;SDS011;17871;31.584;74.450;2024-03-06T11:59:22;33.88;;;16.42;;
31238;SDS011;17871;31.584;74.450;2024-03-06T12:01:55;36.50;;;16.52;;
31238;SDS011;17871;31.584;74.450;2024-03-06T12:04:24;38.92;;;15.82;;
31238;SDS011;17871;31.584;74.450;2024-03-06T12:06:57;47.28;;;16.23;;
31238;SDS011;17871;31.584;74.450;2024-03-06T12:09:34;53.63;;;15.95;;
31238;SDS011;17871;31.584;74.450;2024-03-06T12:12:09;33.35;;;15.63;;
31238;SDS011;17871;31.584;74.450;2024-03-06T12:14:40;47.83;;;16.13;;
31238;SDS011;17871;31.584;74.450;2024-03-06T12:17:13;36.80;;;14.70;;
31238;SDS011;17871;31.584;74.450;2024-03-06T12:19:45;43.88;;;15.40;;
31238;SDS011;17871;31.584;74.450;2024-03-06T12:22:14;33.50;;;14.07;;
31238;SDS011;17871;31.584;74.450;2024-03-06T12:24:44;35.25;;;15.55;;
31238;SDS011;17871;31.584;74.450;2024-03-06T12:27:13;41.85;;;14.30;;
31238;SDS011;17871;31.584;74.450;2024-03-06T12:29:42;49.92;;;18.58;;
31238;SDS011;17871;31.584;74.450;2024-03-06T12:32:20;46.97;;;18.30;;
31238;SDS011;17871;31.584;74.450;2024-03-06T12:34:59;39.85;;;16.90;;
31238;SDS011;17871;31.584;74.450;2024-03-06T12:37:30;38.38;;;17.58;;
31238;SDS011;17871;31.584;74.450;2024-03-06T12:40:03;47.80;;;18.50;;
31238;SDS011;17871;31.584;74.450;2024-03-06T12:42:41;48.05;;;18.38;;
31238;SDS011;17871;31.584;74.450;2024-03-06T12:45:12;55.08;;;18.17;;
31238;SDS011;17871;31.584;74.450;2024-03-06T12:47:44;47.05;;;17.63;;
31238;SDS011;17871;31.584;74.450;2024-03-06T12:50:18;58.67;;;18.77;;
31238;SDS011;17871;31.584;74.450;2024-03-06T12:52:49;96.03;;;30.65;;
31238;SDS011;17871;31.584;74.450;2024-03-06T12:55:18;118.70;;;68.40;;
31238;SDS011;17871;31.584;74.450;2024-03-06T12:57:47;83.90;;;41.78;;
31238;SDS011;17871;31.584;74.450;2024-03-06T13:00:20;69.93;;;21.67;;
31238;SDS011;17871;31.584;74.450;2024-03-06T13:02:49;55.90;;;17.55;;
31238;SDS011;17871;31.584;74.450;2024-03-06T13:05:22;42.47;;;17.10;;
31238;SDS011;17871;31.584;74.450;2024-03-06T13:07:56;42.60;;;13.95;;
31238;SDS011;17871;31.584;74.450;2024-03-06T13:10:25;47.42;;;15.45;;
31238;SDS011;17871;31.584;74.450;2024-03-06T13:12:54;51.78;;;22.10;;
31238;SDS011;17871;31.584;74.450;2024-03-06T13:15:23;64.95;;;22.75;;
31238;SDS011;17871;31.584;74.450;2024-03-06T13:17:52;57.38;;;18.40;;
31238;SDS011;17871;31.584;74.450;2024-03-06T13:20:22;50.78;;;17.58;;
31238;SDS011;17871;31.584;74.450;2024-03-06T13:22:51;51.90;;;17.38;;
31238;SDS011;17871;31.584;74.450;2024-03-06T13:25:20;35.88;;;16.55;;
31238;SDS011;17871;31.584;74.450;2024-03-06T13:27:49;57.72;;;18.65;;
31238;SDS011;17871;31.584;74.450;2024-03-06T13:30:20;49.35;;;20.92;;
31238;SDS011;17871;31.584;74.450;2024-03-06T13:32:50;57.10;;;22.58;;
31238;SDS011;17871;31.584;74.450;2024-03-06T13:35:19;59.58;;;22.42;;
31238;SDS011;17871;31.584;74.450;2024-03-06T13:37:48;69.70;;;24.65;;
31238;SDS011;17871;31.584;74.450;2024-03-06T13:40:18;68.65;;;24.67;;
31238;SDS011;17871;31.584;74.450;2024-03-06T13:42:47;74.60;;;24.45;;
31238;SDS011;17871;31.584;74.450;2024-03-06T13:45:16;70.55;;;28.45;;
31238;SDS011;17871;31.584;74.450;2024-03-06T13:47:45;84.93;;;37.70;;
31238;SDS011;17871;31.584;74.450;2024-03-06T13:50:15;102.10;;;41.50;;
31238;SDS011;17871;31.584;74.450;2024-03-06T13:52:45;99.85;;;44.70;;
31238;SDS011;17871;31.584;74.450;2024-03-06T13:55:14;93.32;;;42.03;;
31238;SDS011;17871;31.584;74.450;2024-03-06T13:57:43;78.43;;;35.72;;
31238;SDS011;17871;31.584;74.450;2024-03-06T14:00:12;81.53;;;30.75;;
31238;SDS011;17871;31.584;74.450;2024-03-06T14:02:46;87.40;;;29.48;;
31238;SDS011;17871;31.584;74.450;2024-03-06T14:05:16;72.22;;;29.83;;
31238;SDS011;17871;31.584;74.450;2024-03-06T14:07:45;69.10;;;27.40;;
31238;SDS011;17871;31.584;74.450;2024-03-06T14:10:14;64.05;;;26.60;;
31238;SDS011;17871;31.584;74.450;2024-03-06T14:12:47;70.97;;;26.65;;
31238;SDS011;17871;31.584;74.450;2024-03-06T14:15:20;107.13;;;28.88;;
31238;SDS011;17871;31.584;74.450;2024-03-06T14:17:51;92.25;;;31.20;;
31238;SDS011;17871;31.584;74.450;2024-03-06T14:20:23;70.60;;;28.85;;
31238;SDS011;17871;31.584;74.450;2024-03-06T14:22:52;75.13;;;29.10;;
31238;SDS011;17871;31.584;74.450;2024-03-06T14:25:22;91.40;;;29.48;;
31238;SDS011;17871;31.584;74.450;2024-03-06T14:27:51;101.60;;;30.75;;
31238;SDS011;17871;31.584;74.450;2024-03-06T14:30:20;80.25;;;28.13;;
31238;SDS011;17871;31.584;74.450;2024-03-06T14:32:49;75.28;;;28.05;;
31238;SDS011;17871;31.584;74.450;2024-03-06T14:35:19;77.72;;;27.60;;
31238;SDS011;17871;31.584;74.450;2024-03-06T14:37:48;79.88;;;28.23;;
31238;SDS011;17871;31.584;74.450;2024-03-06T14:40:17;84.88;;;27.52;;
31238;SDS011;17871;31.584;74.450;2024-03-06T14:42:47;87.97;;;27.95;;
31238;SDS011;17871;31.584;74.450;2024-03-06T14:45:18;84.10;;;27.58;;